<?xml version='1.0' encoding='UTF-8'?>
<gpx version="1.1" creator="https://www.komoot.de" xmlns="http://www.topografix.com/GPX/1/1" xmlns:xsi="http://www.w3.org/2001/XMLSchema-instance" xsi:schemaLocation="http://www.topografix.com/GPX/1/1 http://www.topografix.com/GPX/1/1/gpx.xsd">
  <metadata>
    <name>DNF - Yons (Ravito) - Tosse</name>
    <author>
      <link href="https://www.komoot.de">
        <text>komoot</text>
        <type>text/html</type>
      </link>
    </author>
  </metadata>
  <trk>
    <name>DNF - Yons (Ravito) - Tosse</name>
    <trkseg>
      <trkpt lat="43.989719" lon="-1.304988">
        <ele>59.105938</ele>
        <time>2026-03-26T21:20:54.818Z</time>
      </trkpt>
      <trkpt lat="43.991983" lon="-1.306614">
        <ele>57.958639</ele>
        <time>2026-03-26T21:21:41.705Z</time>
      </trkpt>
      <trkpt lat="43.992577" lon="-1.307040">
        <ele>56.671933</ele>
        <time>2026-03-26T21:21:52.918Z</time>
      </trkpt>
      <trkpt lat="43.992811" lon="-1.307261">
        <ele>56.027051</ele>
        <time>2026-03-26T21:21:57.474Z</time>
      </trkpt>
      <trkpt lat="43.993504" lon="-1.308178">
        <ele>53.846024</ele>
        <time>2026-03-26T21:22:11.807Z</time>
      </trkpt>
      <trkpt lat="43.993649" lon="-1.308462">
        <ele>52.902694</ele>
        <time>2026-03-26T21:22:15.389Z</time>
      </trkpt>
      <trkpt lat="43.994038" lon="-1.310196">
        <ele>47.612410</ele>
        <time>2026-03-26T21:22:33.372Z</time>
      </trkpt>
      <trkpt lat="43.994123" lon="-1.310400">
        <ele>46.925783</ele>
        <time>2026-03-26T21:22:35.704Z</time>
      </trkpt>
      <trkpt lat="43.994874" lon="-1.311350">
        <ele>44.134593</ele>
        <time>2026-03-26T21:22:50.318Z</time>
      </trkpt>
      <trkpt lat="43.995828" lon="-1.312854">
        <ele>40.556723</ele>
        <time>2026-03-26T21:23:14.030Z</time>
      </trkpt>
      <trkpt lat="43.996127" lon="-1.313220">
        <ele>39.638545</ele>
        <time>2026-03-26T21:23:20.372Z</time>
      </trkpt>
      <trkpt lat="43.996366" lon="-1.313449">
        <ele>38.969565</ele>
        <time>2026-03-26T21:23:24.804Z</time>
      </trkpt>
      <trkpt lat="43.997108" lon="-1.313749">
        <ele>37.276533</ele>
        <time>2026-03-26T21:23:36.067Z</time>
      </trkpt>
      <trkpt lat="43.997373" lon="-1.313948">
        <ele>36.708342</ele>
        <time>2026-03-26T21:23:40.355Z</time>
      </trkpt>
      <trkpt lat="43.997630" lon="-1.314303">
        <ele>36.024867</ele>
        <time>2026-03-26T21:23:45.635Z</time>
      </trkpt>
      <trkpt lat="43.998136" lon="-1.315096">
        <ele>34.586382</ele>
        <time>2026-03-26T21:23:58.325Z</time>
      </trkpt>
      <trkpt lat="43.998269" lon="-1.315304">
        <ele>34.351354</ele>
        <time>2026-03-26T21:24:02.612Z</time>
      </trkpt>
      <trkpt lat="43.998405" lon="-1.315587">
        <ele>34.815348</ele>
        <time>2026-03-26T21:24:08.525Z</time>
      </trkpt>
      <trkpt lat="43.998464" lon="-1.315818">
        <ele>35.149537</ele>
        <time>2026-03-26T21:24:13.222Z</time>
      </trkpt>
      <trkpt lat="43.998533" lon="-1.316516">
        <ele>36.110077</ele>
        <time>2026-03-26T21:24:28.656Z</time>
      </trkpt>
      <trkpt lat="43.998579" lon="-1.316711">
        <ele>36.389854</ele>
        <time>2026-03-26T21:24:33.592Z</time>
      </trkpt>
      <trkpt lat="43.998638" lon="-1.316900">
        <ele>36.670736</ele>
        <time>2026-03-26T21:24:38.495Z</time>
      </trkpt>
      <trkpt lat="43.999037" lon="-1.317737">
        <ele>37.700592</ele>
        <time>2026-03-26T21:25:00.209Z</time>
      </trkpt>
      <trkpt lat="43.999219" lon="-1.318013">
        <ele>37.717965</ele>
        <time>2026-03-26T21:25:07.341Z</time>
      </trkpt>
      <trkpt lat="43.999935" lon="-1.318839">
        <ele>37.777979</ele>
        <time>2026-03-26T21:25:26.556Z</time>
      </trkpt>
      <trkpt lat="44.002054" lon="-1.321033">
        <ele>32.475444</ele>
        <time>2026-03-26T21:26:07.362Z</time>
      </trkpt>
      <trkpt lat="44.002232" lon="-1.321280">
        <ele>31.691271</ele>
        <time>2026-03-26T21:26:11.025Z</time>
      </trkpt>
      <trkpt lat="44.002366" lon="-1.321581">
        <ele>30.897346</ele>
        <time>2026-03-26T21:26:14.700Z</time>
      </trkpt>
      <trkpt lat="44.002641" lon="-1.322450">
        <ele>28.768057</ele>
        <time>2026-03-26T21:26:24.495Z</time>
      </trkpt>
      <trkpt lat="44.002904" lon="-1.323431">
        <ele>26.466854</ele>
        <time>2026-03-26T21:26:35.344Z</time>
      </trkpt>
      <trkpt lat="44.003039" lon="-1.324305">
        <ele>24.514504</ele>
        <time>2026-03-26T21:26:44.887Z</time>
      </trkpt>
      <trkpt lat="44.003433" lon="-1.326843">
        <ele>19.237857</ele>
        <time>2026-03-26T21:27:12.705Z</time>
      </trkpt>
      <trkpt lat="44.003656" lon="-1.328010">
        <ele>17.265369</ele>
        <time>2026-03-26T21:27:25.753Z</time>
      </trkpt>
      <trkpt lat="44.003548" lon="-1.328295">
        <ele>16.892799</ele>
        <time>2026-03-26T21:27:29.470Z</time>
      </trkpt>
      <trkpt lat="44.002939" lon="-1.329143">
        <ele>15.506865</ele>
        <time>2026-03-26T21:27:44.016Z</time>
      </trkpt>
      <trkpt lat="44.003021" lon="-1.329285">
        <ele>15.296252</ele>
        <time>2026-03-26T21:27:45.747Z</time>
      </trkpt>
      <trkpt lat="44.002039" lon="-1.330674">
        <ele>14.059513</ele>
        <time>2026-03-26T21:28:02.483Z</time>
      </trkpt>
      <trkpt lat="44.001920" lon="-1.330866">
        <ele>13.923052</ele>
        <time>2026-03-26T21:28:04.726Z</time>
      </trkpt>
      <trkpt lat="44.001886" lon="-1.330998">
        <ele>13.847559</ele>
        <time>2026-03-26T21:28:06.026Z</time>
      </trkpt>
      <trkpt lat="44.001612" lon="-1.332080">
        <ele>13.791251</ele>
        <time>2026-03-26T21:28:19.054Z</time>
      </trkpt>
      <trkpt lat="44.000938" lon="-1.333189">
        <ele>14.201811</ele>
        <time>2026-03-26T21:28:38.203Z</time>
      </trkpt>
      <trkpt lat="44.000646" lon="-1.333724">
        <ele>14.168500</ele>
        <time>2026-03-26T21:28:45.520Z</time>
      </trkpt>
      <trkpt lat="44.000381" lon="-1.334944">
        <ele>13.600646</ele>
        <time>2026-03-26T21:28:57.094Z</time>
      </trkpt>
      <trkpt lat="43.999754" lon="-1.335479">
        <ele>13.153618</ele>
        <time>2026-03-26T21:29:06.017Z</time>
      </trkpt>
      <trkpt lat="43.998785" lon="-1.336025">
        <ele>12.628277</ele>
        <time>2026-03-26T21:29:19.889Z</time>
      </trkpt>
      <trkpt lat="43.998445" lon="-1.336202">
        <ele>12.445861</ele>
        <time>2026-03-26T21:29:24.995Z</time>
      </trkpt>
      <trkpt lat="43.997557" lon="-1.336349">
        <ele>12.140792</ele>
        <time>2026-03-26T21:29:37.163Z</time>
      </trkpt>
      <trkpt lat="43.996716" lon="-1.336216">
        <ele>11.926577</ele>
        <time>2026-03-26T21:29:48.504Z</time>
      </trkpt>
      <trkpt lat="43.996251" lon="-1.336110">
        <ele>11.927580</ele>
        <time>2026-03-26T21:29:55.063Z</time>
      </trkpt>
      <trkpt lat="43.994765" lon="-1.335701">
        <ele>13.413053</ele>
        <time>2026-03-26T21:30:22.630Z</time>
      </trkpt>
      <trkpt lat="43.993162" lon="-1.335621">
        <ele>16.573492</ele>
        <time>2026-03-26T21:31:02.684Z</time>
      </trkpt>
      <trkpt lat="43.991712" lon="-1.335612">
        <ele>17.979936</ele>
        <time>2026-03-26T21:31:32.270Z</time>
      </trkpt>
      <trkpt lat="43.989481" lon="-1.335498">
        <ele>17.112418</ele>
        <time>2026-03-26T21:32:00.420Z</time>
      </trkpt>
      <trkpt lat="43.988787" lon="-1.335579">
        <ele>16.675424</ele>
        <time>2026-03-26T21:32:08.734Z</time>
      </trkpt>
      <trkpt lat="43.988554" lon="-1.335668">
        <ele>16.563930</ele>
        <time>2026-03-26T21:32:11.722Z</time>
      </trkpt>
      <trkpt lat="43.986581" lon="-1.336419">
        <ele>15.570637</ele>
        <time>2026-03-26T21:32:41.211Z</time>
      </trkpt>
      <trkpt lat="43.986164" lon="-1.336687">
        <ele>15.333131</ele>
        <time>2026-03-26T21:32:47.269Z</time>
      </trkpt>
      <trkpt lat="43.985940" lon="-1.337088">
        <ele>15.144300</ele>
        <time>2026-03-26T21:32:51.727Z</time>
      </trkpt>
      <trkpt lat="43.985614" lon="-1.338009">
        <ele>14.415102</ele>
        <time>2026-03-26T21:33:00.347Z</time>
      </trkpt>
      <trkpt lat="43.985496" lon="-1.338267">
        <ele>14.184536</ele>
        <time>2026-03-26T21:33:02.888Z</time>
      </trkpt>
      <trkpt lat="43.984214" lon="-1.340818">
        <ele>12.721054</ele>
        <time>2026-03-26T21:33:30.898Z</time>
      </trkpt>
      <trkpt lat="43.983984" lon="-1.341093">
        <ele>12.606958</ele>
        <time>2026-03-26T21:33:35.974Z</time>
      </trkpt>
      <trkpt lat="43.983328" lon="-1.341463">
        <ele>13.042324</ele>
        <time>2026-03-26T21:33:49.309Z</time>
      </trkpt>
      <trkpt lat="43.981976" lon="-1.341928">
        <ele>14.287760</ele>
        <time>2026-03-26T21:34:16.486Z</time>
      </trkpt>
      <trkpt lat="43.978907" lon="-1.342779">
        <ele>14.598048</ele>
        <time>2026-03-26T21:35:03.879Z</time>
      </trkpt>
      <trkpt lat="43.974540" lon="-1.344037">
        <ele>12.797970</ele>
        <time>2026-03-26T21:36:02.715Z</time>
      </trkpt>
      <trkpt lat="43.973341" lon="-1.344404">
        <ele>12.815930</ele>
        <time>2026-03-26T21:36:21.233Z</time>
      </trkpt>
      <trkpt lat="43.972972" lon="-1.344627">
        <ele>13.118005</ele>
        <time>2026-03-26T21:36:28.722Z</time>
      </trkpt>
      <trkpt lat="43.971725" lon="-1.345576">
        <ele>14.351343</ele>
        <time>2026-03-26T21:36:56.694Z</time>
      </trkpt>
      <trkpt lat="43.970243" lon="-1.346704">
        <ele>14.179621</ele>
        <time>2026-03-26T21:37:20.305Z</time>
      </trkpt>
      <trkpt lat="43.968271" lon="-1.348135">
        <ele>13.416127</ele>
        <time>2026-03-26T21:37:49.418Z</time>
      </trkpt>
      <trkpt lat="43.967938" lon="-1.348233">
        <ele>13.558553</ele>
        <time>2026-03-26T21:37:55.297Z</time>
      </trkpt>
      <trkpt lat="43.967027" lon="-1.348062">
        <ele>13.943198</ele>
        <time>2026-03-26T21:38:11.996Z</time>
      </trkpt>
      <trkpt lat="43.965839" lon="-1.347634">
        <ele>14.292969</ele>
        <time>2026-03-26T21:38:32.313Z</time>
      </trkpt>
      <trkpt lat="43.964430" lon="-1.347680">
        <ele>14.349638</ele>
        <time>2026-03-26T21:38:53.174Z</time>
      </trkpt>
      <trkpt lat="43.964184" lon="-1.347646">
        <ele>14.286639</ele>
        <time>2026-03-26T21:38:56.957Z</time>
      </trkpt>
      <trkpt lat="43.963508" lon="-1.347555">
        <ele>14.113564</ele>
        <time>2026-03-26T21:39:06.604Z</time>
      </trkpt>
      <trkpt lat="43.963375" lon="-1.347646">
        <ele>14.075784</ele>
        <time>2026-03-26T21:39:08.579Z</time>
      </trkpt>
      <trkpt lat="43.962651" lon="-1.349207">
        <ele>12.808187</ele>
        <time>2026-03-26T21:39:24.757Z</time>
      </trkpt>
      <trkpt lat="43.962564" lon="-1.349355">
        <ele>12.666834</ele>
        <time>2026-03-26T21:39:26.331Z</time>
      </trkpt>
      <trkpt lat="43.962185" lon="-1.349716">
        <ele>12.194576</ele>
        <time>2026-03-26T21:39:31.687Z</time>
      </trkpt>
      <trkpt lat="43.961456" lon="-1.350120">
        <ele>11.917383</ele>
        <time>2026-03-26T21:39:41.562Z</time>
      </trkpt>
      <trkpt lat="43.959663" lon="-1.350989">
        <ele>11.627346</ele>
        <time>2026-03-26T21:40:10.770Z</time>
      </trkpt>
      <trkpt lat="43.958457" lon="-1.351936">
        <ele>11.659607</ele>
        <time>2026-03-26T21:40:31.495Z</time>
      </trkpt>
      <trkpt lat="43.958266" lon="-1.352039">
        <ele>11.643438</ele>
        <time>2026-03-26T21:40:34.409Z</time>
      </trkpt>
      <trkpt lat="43.957918" lon="-1.352371">
        <ele>11.610122</ele>
        <time>2026-03-26T21:40:40.442Z</time>
      </trkpt>
      <trkpt lat="43.957398" lon="-1.352781">
        <ele>11.562936</ele>
        <time>2026-03-26T21:40:48.950Z</time>
      </trkpt>
      <trkpt lat="43.956882" lon="-1.353173">
        <ele>11.709539</ele>
        <time>2026-03-26T21:40:57.692Z</time>
      </trkpt>
      <trkpt lat="43.956509" lon="-1.353333">
        <ele>11.834373</ele>
        <time>2026-03-26T21:41:04.044Z</time>
      </trkpt>
      <trkpt lat="43.956015" lon="-1.353395">
        <ele>11.992987</ele>
        <time>2026-03-26T21:41:12.769Z</time>
      </trkpt>
      <trkpt lat="43.955076" lon="-1.353452">
        <ele>12.090732</ele>
        <time>2026-03-26T21:41:28.274Z</time>
      </trkpt>
      <trkpt lat="43.954721" lon="-1.353466">
        <ele>12.063554</ele>
        <time>2026-03-26T21:41:32.875Z</time>
      </trkpt>
      <trkpt lat="43.954259" lon="-1.353472">
        <ele>12.028197</ele>
        <time>2026-03-26T21:41:39.094Z</time>
      </trkpt>
      <trkpt lat="43.953769" lon="-1.353507">
        <ele>12.007177</ele>
        <time>2026-03-26T21:41:46.041Z</time>
      </trkpt>
      <trkpt lat="43.953021" lon="-1.353611">
        <ele>12.543299</ele>
        <time>2026-03-26T21:41:57.355Z</time>
      </trkpt>
      <trkpt lat="43.952729" lon="-1.353620">
        <ele>12.751597</ele>
        <time>2026-03-26T21:42:03.024Z</time>
      </trkpt>
      <trkpt lat="43.952094" lon="-1.353604">
        <ele>13.204539</ele>
        <time>2026-03-26T21:42:16.360Z</time>
      </trkpt>
      <trkpt lat="43.952045" lon="-1.353553">
        <ele>13.248207</ele>
        <time>2026-03-26T21:42:17.587Z</time>
      </trkpt>
      <trkpt lat="43.951991" lon="-1.353553">
        <ele>13.286005</ele>
        <time>2026-03-26T21:42:18.635Z</time>
      </trkpt>
      <trkpt lat="43.950675" lon="-1.353593">
        <ele>14.167605</ele>
        <time>2026-03-26T21:42:42.703Z</time>
      </trkpt>
      <trkpt lat="43.949253" lon="-1.353707">
        <ele>13.939800</ele>
        <time>2026-03-26T21:43:03.166Z</time>
      </trkpt>
      <trkpt lat="43.948997" lon="-1.353673">
        <ele>13.794955</ele>
        <time>2026-03-26T21:43:06.285Z</time>
      </trkpt>
      <trkpt lat="43.948792" lon="-1.353587">
        <ele>13.674341</ele>
        <time>2026-03-26T21:43:08.865Z</time>
      </trkpt>
      <trkpt lat="43.948491" lon="-1.353386">
        <ele>13.486232</ele>
        <time>2026-03-26T21:43:12.846Z</time>
      </trkpt>
      <trkpt lat="43.948115" lon="-1.353188">
        <ele>13.232029</ele>
        <time>2026-03-26T21:43:17.615Z</time>
      </trkpt>
      <trkpt lat="43.947370" lon="-1.353258">
        <ele>12.755101</ele>
        <time>2026-03-26T21:43:26.986Z</time>
      </trkpt>
      <trkpt lat="43.946572" lon="-1.353279">
        <ele>12.265974</ele>
        <time>2026-03-26T21:43:38.437Z</time>
      </trkpt>
      <trkpt lat="43.945960" lon="-1.353341">
        <ele>11.985782</ele>
        <time>2026-03-26T21:43:47.345Z</time>
      </trkpt>
      <trkpt lat="43.945763" lon="-1.353392">
        <ele>11.894279</ele>
        <time>2026-03-26T21:43:50.146Z</time>
      </trkpt>
      <trkpt lat="43.945564" lon="-1.353536">
        <ele>11.791819</ele>
        <time>2026-03-26T21:43:53.212Z</time>
      </trkpt>
      <trkpt lat="43.945181" lon="-1.353904">
        <ele>11.579164</ele>
        <time>2026-03-26T21:43:59.279Z</time>
      </trkpt>
      <trkpt lat="43.945040" lon="-1.354116">
        <ele>11.465408</ele>
        <time>2026-03-26T21:44:01.854Z</time>
      </trkpt>
      <trkpt lat="43.944760" lon="-1.354373">
        <ele>11.075107</ele>
        <time>2026-03-26T21:44:05.832Z</time>
      </trkpt>
      <trkpt lat="43.944540" lon="-1.354526">
        <ele>10.788980</ele>
        <time>2026-03-26T21:44:08.654Z</time>
      </trkpt>
      <trkpt lat="43.944353" lon="-1.354631">
        <ele>10.554413</ele>
        <time>2026-03-26T21:44:10.957Z</time>
      </trkpt>
      <trkpt lat="43.944150" lon="-1.354695">
        <ele>10.312333</ele>
        <time>2026-03-26T21:44:13.351Z</time>
      </trkpt>
      <trkpt lat="43.943497" lon="-1.354673">
        <ele>9.552717</ele>
        <time>2026-03-26T21:44:21.018Z</time>
      </trkpt>
      <trkpt lat="43.943403" lon="-1.354666">
        <ele>9.443245</ele>
        <time>2026-03-26T21:44:22.154Z</time>
      </trkpt>
      <trkpt lat="43.942010" lon="-1.354596">
        <ele>8.993661</ele>
        <time>2026-03-26T21:44:41.355Z</time>
      </trkpt>
      <trkpt lat="43.941200" lon="-1.354278">
        <ele>8.741236</ele>
        <time>2026-03-26T21:44:54.478Z</time>
      </trkpt>
      <trkpt lat="43.940908" lon="-1.354200">
        <ele>8.652782</ele>
        <time>2026-03-26T21:44:58.659Z</time>
      </trkpt>
      <trkpt lat="43.940099" lon="-1.354482">
        <ele>8.404664</ele>
        <time>2026-03-26T21:45:09.588Z</time>
      </trkpt>
      <trkpt lat="43.939907" lon="-1.354781">
        <ele>8.326058</ele>
        <time>2026-03-26T21:45:13.333Z</time>
      </trkpt>
      <trkpt lat="43.939199" lon="-1.355273">
        <ele>8.316808</ele>
        <time>2026-03-26T21:45:24.424Z</time>
      </trkpt>
      <trkpt lat="43.939061" lon="-1.355362">
        <ele>8.315031</ele>
        <time>2026-03-26T21:45:26.640Z</time>
      </trkpt>
      <trkpt lat="43.938381" lon="-1.355498">
        <ele>8.307004</ele>
        <time>2026-03-26T21:45:37.540Z</time>
      </trkpt>
      <trkpt lat="43.938248" lon="-1.355426">
        <ele>8.305477</ele>
        <time>2026-03-26T21:45:39.892Z</time>
      </trkpt>
      <trkpt lat="43.938035" lon="-1.355312">
        <ele>8.475165</ele>
        <time>2026-03-26T21:45:43.695Z</time>
      </trkpt>
      <trkpt lat="43.937782" lon="-1.355233">
        <ele>8.667931</ele>
        <time>2026-03-26T21:45:48.031Z</time>
      </trkpt>
      <trkpt lat="43.937380" lon="-1.355374">
        <ele>8.976147</ele>
        <time>2026-03-26T21:45:55.085Z</time>
      </trkpt>
      <trkpt lat="43.936901" lon="-1.355591">
        <ele>9.350686</ele>
        <time>2026-03-26T21:46:04.079Z</time>
      </trkpt>
      <trkpt lat="43.936693" lon="-1.355859">
        <ele>9.561607</ele>
        <time>2026-03-26T21:46:09.513Z</time>
      </trkpt>
      <trkpt lat="43.936298" lon="-1.355957">
        <ele>10.176290</ele>
        <time>2026-03-26T21:46:17.400Z</time>
      </trkpt>
      <trkpt lat="43.935951" lon="-1.355940">
        <ele>10.809868</ele>
        <time>2026-03-26T21:46:24.954Z</time>
      </trkpt>
      <trkpt lat="43.935708" lon="-1.355969">
        <ele>11.254915</ele>
        <time>2026-03-26T21:46:30.674Z</time>
      </trkpt>
      <trkpt lat="43.935578" lon="-1.355913">
        <ele>11.503282</ele>
        <time>2026-03-26T21:46:33.840Z</time>
      </trkpt>
      <trkpt lat="43.935463" lon="-1.355790">
        <ele>11.768155</ele>
        <time>2026-03-26T21:46:37.256Z</time>
      </trkpt>
      <trkpt lat="43.935418" lon="-1.355625">
        <ele>12.000000</ele>
        <time>2026-03-26T21:46:40.195Z</time>
      </trkpt>
      <trkpt lat="43.935337" lon="-1.355430">
        <ele>12.295810</ele>
        <time>2026-03-26T21:46:43.982Z</time>
      </trkpt>
      <trkpt lat="43.935296" lon="-1.354950">
        <ele>12.928542</ele>
        <time>2026-03-26T21:46:52.018Z</time>
      </trkpt>
      <trkpt lat="43.935252" lon="-1.354843">
        <ele>13.030284</ele>
        <time>2026-03-26T21:46:54.002Z</time>
      </trkpt>
      <trkpt lat="43.935169" lon="-1.354744">
        <ele>13.155743</ele>
        <time>2026-03-26T21:46:56.491Z</time>
      </trkpt>
      <trkpt lat="43.934689" lon="-1.354353">
        <ele>13.793834</ele>
        <time>2026-03-26T21:47:08.841Z</time>
      </trkpt>
      <trkpt lat="43.933513" lon="-1.353241">
        <ele>14.745097</ele>
        <time>2026-03-26T21:47:33.666Z</time>
      </trkpt>
      <trkpt lat="43.932966" lon="-1.352863">
        <ele>14.358802</ele>
        <time>2026-03-26T21:47:42.139Z</time>
      </trkpt>
      <trkpt lat="43.930357" lon="-1.352242">
        <ele>10.953289</ele>
        <time>2026-03-26T21:48:12.459Z</time>
      </trkpt>
      <trkpt lat="43.929682" lon="-1.352005">
        <ele>10.061946</ele>
        <time>2026-03-26T21:48:20.135Z</time>
      </trkpt>
      <trkpt lat="43.927907" lon="-1.351567">
        <ele>8.515491</ele>
        <time>2026-03-26T21:48:42.408Z</time>
      </trkpt>
      <trkpt lat="43.927506" lon="-1.351663">
        <ele>8.411331</ele>
        <time>2026-03-26T21:48:48.077Z</time>
      </trkpt>
      <trkpt lat="43.926716" lon="-1.352241">
        <ele>8.564537</ele>
        <time>2026-03-26T21:49:02.510Z</time>
      </trkpt>
      <trkpt lat="43.926310" lon="-1.352727">
        <ele>9.263508</ele>
        <time>2026-03-26T21:49:13.114Z</time>
      </trkpt>
      <trkpt lat="43.925576" lon="-1.353889">
        <ele>10.602158</ele>
        <time>2026-03-26T21:49:37.561Z</time>
      </trkpt>
      <trkpt lat="43.925327" lon="-1.354202">
        <ele>10.642618</ele>
        <time>2026-03-26T21:49:44.257Z</time>
      </trkpt>
      <trkpt lat="43.925130" lon="-1.354450">
        <ele>10.674650</ele>
        <time>2026-03-26T21:49:49.071Z</time>
      </trkpt>
      <trkpt lat="43.925040" lon="-1.354497">
        <ele>10.686232</ele>
        <time>2026-03-26T21:49:50.707Z</time>
      </trkpt>
      <trkpt lat="43.922063" lon="-1.356012">
        <ele>8.980852</ele>
        <time>2026-03-26T21:50:30.722Z</time>
      </trkpt>
      <trkpt lat="43.921317" lon="-1.356150">
        <ele>8.230367</ele>
        <time>2026-03-26T21:50:39.564Z</time>
      </trkpt>
      <trkpt lat="43.920940" lon="-1.356127">
        <ele>7.854061</ele>
        <time>2026-03-26T21:50:44.069Z</time>
      </trkpt>
      <trkpt lat="43.920174" lon="-1.355822">
        <ele>7.524580</ele>
        <time>2026-03-26T21:50:54.498Z</time>
      </trkpt>
      <trkpt lat="43.919871" lon="-1.355465">
        <ele>7.501807</ele>
        <time>2026-03-26T21:51:00.444Z</time>
      </trkpt>
      <trkpt lat="43.919389" lon="-1.355039">
        <ele>7.469064</ele>
        <time>2026-03-26T21:51:09.566Z</time>
      </trkpt>
      <trkpt lat="43.916076" lon="-1.352861">
        <ele>7.973092</ele>
        <time>2026-03-26T21:52:06.870Z</time>
      </trkpt>
      <trkpt lat="43.915846" lon="-1.352815">
        <ele>7.998219</ele>
        <time>2026-03-26T21:52:10.141Z</time>
      </trkpt>
      <trkpt lat="43.914537" lon="-1.352920">
        <ele>8.211735</ele>
        <time>2026-03-26T21:52:28.882Z</time>
      </trkpt>
      <trkpt lat="43.913779" lon="-1.353016">
        <ele>8.457633</ele>
        <time>2026-03-26T21:52:42.217Z</time>
      </trkpt>
      <trkpt lat="43.913645" lon="-1.352971">
        <ele>8.549829</ele>
        <time>2026-03-26T21:52:44.885Z</time>
      </trkpt>
      <trkpt lat="43.912695" lon="-1.352362">
        <ele>9.249601</ele>
        <time>2026-03-26T21:53:04.177Z</time>
      </trkpt>
      <trkpt lat="43.912331" lon="-1.352930">
        <ele>9.521016</ele>
        <time>2026-03-26T21:53:13.037Z</time>
      </trkpt>
      <trkpt lat="43.912314" lon="-1.353090">
        <ele>9.535012</ele>
        <time>2026-03-26T21:53:14.758Z</time>
      </trkpt>
      <trkpt lat="43.912424" lon="-1.353829">
        <ele>9.600314</ele>
        <time>2026-03-26T21:53:22.313Z</time>
      </trkpt>
      <trkpt lat="43.912340" lon="-1.354406">
        <ele>9.651255</ele>
        <time>2026-03-26T21:53:28.343Z</time>
      </trkpt>
      <trkpt lat="43.912217" lon="-1.354852">
        <ele>9.692582</ele>
        <time>2026-03-26T21:53:33.741Z</time>
      </trkpt>
      <trkpt lat="43.912154" lon="-1.355196">
        <ele>9.712255</ele>
        <time>2026-03-26T21:53:38.259Z</time>
      </trkpt>
      <trkpt lat="43.911818" lon="-1.356137">
        <ele>9.659451</ele>
        <time>2026-03-26T21:53:51.614Z</time>
      </trkpt>
      <trkpt lat="43.911701" lon="-1.356376">
        <ele>9.644923</ele>
        <time>2026-03-26T21:53:54.994Z</time>
      </trkpt>
      <trkpt lat="43.911619" lon="-1.356456">
        <ele>9.637928</ele>
        <time>2026-03-26T21:53:56.540Z</time>
      </trkpt>
      <trkpt lat="43.910928" lon="-1.356818">
        <ele>9.499631</ele>
        <time>2026-03-26T21:54:05.956Z</time>
      </trkpt>
      <trkpt lat="43.910683" lon="-1.357005">
        <ele>9.095584</ele>
        <time>2026-03-26T21:54:09.150Z</time>
      </trkpt>
      <trkpt lat="43.910373" lon="-1.357327">
        <ele>8.536057</ele>
        <time>2026-03-26T21:54:13.368Z</time>
      </trkpt>
      <trkpt lat="43.910221" lon="-1.357481">
        <ele>8.264111</ele>
        <time>2026-03-26T21:54:15.401Z</time>
      </trkpt>
      <trkpt lat="43.908776" lon="-1.359372">
        <ele>6.846733</ele>
        <time>2026-03-26T21:54:38.894Z</time>
      </trkpt>
      <trkpt lat="43.907851" lon="-1.360580">
        <ele>7.915317</ele>
        <time>2026-03-26T21:55:05.644Z</time>
      </trkpt>
      <trkpt lat="43.907192" lon="-1.361373">
        <ele>9.668553</ele>
        <time>2026-03-26T21:55:27.659Z</time>
      </trkpt>
      <trkpt lat="43.907146" lon="-1.361330">
        <ele>9.780036</ele>
        <time>2026-03-26T21:55:34.343Z</time>
      </trkpt>
      <trkpt lat="43.906786" lon="-1.361625">
        <ele>10.473802</ele>
        <time>2026-03-26T21:55:43.986Z</time>
      </trkpt>
      <trkpt lat="43.905636" lon="-1.362348">
        <ele>11.516800</ele>
        <time>2026-03-26T21:56:06.694Z</time>
      </trkpt>
      <trkpt lat="43.904924" lon="-1.362796">
        <ele>11.864039</ele>
        <time>2026-03-26T21:56:18.635Z</time>
      </trkpt>
      <trkpt lat="43.904243" lon="-1.363395">
        <ele>11.878390</ele>
        <time>2026-03-26T21:56:30.676Z</time>
      </trkpt>
      <trkpt lat="43.904024" lon="-1.363518">
        <ele>11.882596</ele>
        <time>2026-03-26T21:56:34.089Z</time>
      </trkpt>
      <trkpt lat="43.903643" lon="-1.363636">
        <ele>11.888413</ele>
        <time>2026-03-26T21:56:39.676Z</time>
      </trkpt>
      <trkpt lat="43.902166" lon="-1.363966">
        <ele>11.447094</ele>
        <time>2026-03-26T21:57:01.172Z</time>
      </trkpt>
      <trkpt lat="43.900394" lon="-1.364418">
        <ele>9.756127</ele>
        <time>2026-03-26T21:57:23.464Z</time>
      </trkpt>
      <trkpt lat="43.899091" lon="-1.364751">
        <ele>7.976470</ele>
        <time>2026-03-26T21:57:38.163Z</time>
      </trkpt>
      <trkpt lat="43.897795" lon="-1.365165">
        <ele>6.678209</ele>
        <time>2026-03-26T21:57:54.482Z</time>
      </trkpt>
      <trkpt lat="43.896053" lon="-1.365867">
        <ele>6.163711</ele>
        <time>2026-03-26T21:58:21.149Z</time>
      </trkpt>
      <trkpt lat="43.894035" lon="-1.366626">
        <ele>6.121034</ele>
        <time>2026-03-26T21:58:50.961Z</time>
      </trkpt>
      <trkpt lat="43.891525" lon="-1.367468">
        <ele>6.652491</ele>
        <time>2026-03-26T21:59:32.686Z</time>
      </trkpt>
      <trkpt lat="43.889912" lon="-1.368096">
        <ele>6.083704</ele>
        <time>2026-03-26T21:59:56.428Z</time>
      </trkpt>
      <trkpt lat="43.889616" lon="-1.368154">
        <ele>5.951603</ele>
        <time>2026-03-26T21:59:59.984Z</time>
      </trkpt>
      <trkpt lat="43.889474" lon="-1.368123">
        <ele>5.826587</ele>
        <time>2026-03-26T22:00:01.650Z</time>
      </trkpt>
      <trkpt lat="43.888718" lon="-1.367616">
        <ele>5.096330</ele>
        <time>2026-03-26T22:00:11.257Z</time>
      </trkpt>
      <trkpt lat="43.888587" lon="-1.367536">
        <ele>4.971853</ele>
        <time>2026-03-26T22:00:12.974Z</time>
      </trkpt>
      <trkpt lat="43.888463" lon="-1.367474">
        <ele>4.857223</ele>
        <time>2026-03-26T22:00:14.595Z</time>
      </trkpt>
      <trkpt lat="43.888269" lon="-1.367452">
        <ele>4.687939</ele>
        <time>2026-03-26T22:00:17.135Z</time>
      </trkpt>
      <trkpt lat="43.888100" lon="-1.367502">
        <ele>4.537656</ele>
        <time>2026-03-26T22:00:19.590Z</time>
      </trkpt>
      <trkpt lat="43.887752" lon="-1.367719">
        <ele>4.616680</ele>
        <time>2026-03-26T22:00:25.763Z</time>
      </trkpt>
      <trkpt lat="43.887444" lon="-1.367928">
        <ele>4.913001</ele>
        <time>2026-03-26T22:00:32.033Z</time>
      </trkpt>
      <trkpt lat="43.887340" lon="-1.367993">
        <ele>5.011582</ele>
        <time>2026-03-26T22:00:34.248Z</time>
      </trkpt>
      <trkpt lat="43.887161" lon="-1.368059">
        <ele>5.171654</ele>
        <time>2026-03-26T22:00:37.895Z</time>
      </trkpt>
      <trkpt lat="43.886730" lon="-1.368020">
        <ele>5.544943</ele>
        <time>2026-03-26T22:00:46.530Z</time>
      </trkpt>
      <trkpt lat="43.886073" lon="-1.367850">
        <ele>6.132294</ele>
        <time>2026-03-26T22:00:59.470Z</time>
      </trkpt>
      <trkpt lat="43.885727" lon="-1.367768">
        <ele>6.454583</ele>
        <time>2026-03-26T22:01:05.857Z</time>
      </trkpt>
      <trkpt lat="43.884670" lon="-1.367514">
        <ele>7.439540</ele>
        <time>2026-03-26T22:01:25.341Z</time>
      </trkpt>
      <trkpt lat="43.882996" lon="-1.367164">
        <ele>8.957764</ele>
        <time>2026-03-26T22:01:57.064Z</time>
      </trkpt>
      <trkpt lat="43.882536" lon="-1.367083">
        <ele>9.305972</ele>
        <time>2026-03-26T22:02:05.393Z</time>
      </trkpt>
      <trkpt lat="43.879086" lon="-1.366469">
        <ele>10.641995</ele>
        <time>2026-03-26T22:03:02.616Z</time>
      </trkpt>
      <trkpt lat="43.875345" lon="-1.365830">
        <ele>8.848774</ele>
        <time>2026-03-26T22:03:51.367Z</time>
      </trkpt>
      <trkpt lat="43.875154" lon="-1.365778">
        <ele>8.935725</ele>
        <time>2026-03-26T22:03:54.372Z</time>
      </trkpt>
      <trkpt lat="43.874995" lon="-1.365697">
        <ele>9.011392</ele>
        <time>2026-03-26T22:03:57.093Z</time>
      </trkpt>
      <trkpt lat="43.874734" lon="-1.365465">
        <ele>9.149868</ele>
        <time>2026-03-26T22:04:02.389Z</time>
      </trkpt>
      <trkpt lat="43.872579" lon="-1.363581">
        <ele>10.635034</ele>
        <time>2026-03-26T22:04:49.795Z</time>
      </trkpt>
      <trkpt lat="43.871605" lon="-1.362731">
        <ele>10.721217</ele>
        <time>2026-03-26T22:05:04.500Z</time>
      </trkpt>
      <trkpt lat="43.870870" lon="-1.362087">
        <ele>10.873266</ele>
        <time>2026-03-26T22:05:17.254Z</time>
      </trkpt>
      <trkpt lat="43.870643" lon="-1.361888">
        <ele>11.597268</ele>
        <time>2026-03-26T22:05:23.004Z</time>
      </trkpt>
      <trkpt lat="43.870362" lon="-1.361718">
        <ele>12.423804</ele>
        <time>2026-03-26T22:05:30.603Z</time>
      </trkpt>
      <trkpt lat="43.870140" lon="-1.361584">
        <ele>13.076560</ele>
        <time>2026-03-26T22:05:37.254Z</time>
      </trkpt>
      <trkpt lat="43.869740" lon="-1.361217">
        <ele>14.369584</ele>
        <time>2026-03-26T22:05:51.667Z</time>
      </trkpt>
      <trkpt lat="43.869201" lon="-1.360603">
        <ele>16.094895</ele>
        <time>2026-03-26T22:06:12.273Z</time>
      </trkpt>
      <trkpt lat="43.869045" lon="-1.360447">
        <ele>16.497599</ele>
        <time>2026-03-26T22:06:17.343Z</time>
      </trkpt>
      <trkpt lat="43.868916" lon="-1.360376">
        <ele>16.788214</ele>
        <time>2026-03-26T22:06:20.782Z</time>
      </trkpt>
      <trkpt lat="43.868775" lon="-1.360361">
        <ele>17.084336</ele>
        <time>2026-03-26T22:06:24.095Z</time>
      </trkpt>
      <trkpt lat="43.868377" lon="-1.360467">
        <ele>17.932975</ele>
        <time>2026-03-26T22:06:32.879Z</time>
      </trkpt>
      <trkpt lat="43.867769" lon="-1.360820">
        <ele>19.313163</ele>
        <time>2026-03-26T22:06:46.180Z</time>
      </trkpt>
      <trkpt lat="43.867476" lon="-1.360930">
        <ele>19.276787</ele>
        <time>2026-03-26T22:06:52.240Z</time>
      </trkpt>
      <trkpt lat="43.867351" lon="-1.360926">
        <ele>19.258031</ele>
        <time>2026-03-26T22:06:54.627Z</time>
      </trkpt>
      <trkpt lat="43.867033" lon="-1.360809">
        <ele>19.208679</ele>
        <time>2026-03-26T22:07:00.218Z</time>
      </trkpt>
      <trkpt lat="43.866773" lon="-1.360638">
        <ele>19.165515</ele>
        <time>2026-03-26T22:07:04.592Z</time>
      </trkpt>
      <trkpt lat="43.866424" lon="-1.360376">
        <ele>19.105986</ele>
        <time>2026-03-26T22:07:09.858Z</time>
      </trkpt>
      <trkpt lat="43.866164" lon="-1.360181">
        <ele>19.061647</ele>
        <time>2026-03-26T22:07:13.322Z</time>
      </trkpt>
      <trkpt lat="43.865553" lon="-1.359724">
        <ele>17.454805</ele>
        <time>2026-03-26T22:07:20.571Z</time>
      </trkpt>
      <trkpt lat="43.865229" lon="-1.359424">
        <ele>16.465960</ele>
        <time>2026-03-26T22:07:24.481Z</time>
      </trkpt>
      <trkpt lat="43.864860" lon="-1.358833">
        <ele>15.035177</ele>
        <time>2026-03-26T22:07:30.286Z</time>
      </trkpt>
      <trkpt lat="43.864508" lon="-1.358002">
        <ele>14.012811</ele>
        <time>2026-03-26T22:07:37.995Z</time>
      </trkpt>
      <trkpt lat="43.864213" lon="-1.357473">
        <ele>13.535839</ele>
        <time>2026-03-26T22:07:43.857Z</time>
      </trkpt>
      <trkpt lat="43.864080" lon="-1.357313">
        <ele>13.361680</ele>
        <time>2026-03-26T22:07:46.130Z</time>
      </trkpt>
      <trkpt lat="43.863929" lon="-1.357204">
        <ele>13.193290</ele>
        <time>2026-03-26T22:07:48.430Z</time>
      </trkpt>
      <trkpt lat="43.863677" lon="-1.357103">
        <ele>12.933809</ele>
        <time>2026-03-26T22:07:52.138Z</time>
      </trkpt>
      <trkpt lat="43.863440" lon="-1.357072">
        <ele>12.705721</ele>
        <time>2026-03-26T22:07:55.726Z</time>
      </trkpt>
      <trkpt lat="43.862358" lon="-1.356932">
        <ele>12.541199</ele>
        <time>2026-03-26T22:08:11.414Z</time>
      </trkpt>
      <trkpt lat="43.862085" lon="-1.356934">
        <ele>12.499867</ele>
        <time>2026-03-26T22:08:15.194Z</time>
      </trkpt>
      <trkpt lat="43.861509" lon="-1.357034">
        <ele>12.433784</ele>
        <time>2026-03-26T22:08:23.298Z</time>
      </trkpt>
      <trkpt lat="43.861095" lon="-1.357145">
        <ele>12.431075</ele>
        <time>2026-03-26T22:08:29.269Z</time>
      </trkpt>
      <trkpt lat="43.859155" lon="-1.357875">
        <ele>12.693061</ele>
        <time>2026-03-26T22:08:59.868Z</time>
      </trkpt>
      <trkpt lat="43.858227" lon="-1.358298">
        <ele>13.029503</ele>
        <time>2026-03-26T22:09:16.156Z</time>
      </trkpt>
      <trkpt lat="43.858020" lon="-1.358366">
        <ele>13.149889</ele>
        <time>2026-03-26T22:09:20.004Z</time>
      </trkpt>
      <trkpt lat="43.857265" lon="-1.358254">
        <ele>13.616485</ele>
        <time>2026-03-26T22:09:33.992Z</time>
      </trkpt>
      <trkpt lat="43.856756" lon="-1.358178">
        <ele>13.931074</ele>
        <time>2026-03-26T22:09:43.240Z</time>
      </trkpt>
      <trkpt lat="43.856570" lon="-1.358206">
        <ele>14.046042</ele>
        <time>2026-03-26T22:09:46.420Z</time>
      </trkpt>
      <trkpt lat="43.855896" lon="-1.358493">
        <ele>13.667075</ele>
        <time>2026-03-26T22:09:56.777Z</time>
      </trkpt>
      <trkpt lat="43.855061" lon="-1.358602">
        <ele>12.919125</ele>
        <time>2026-03-26T22:10:06.510Z</time>
      </trkpt>
      <trkpt lat="43.854832" lon="-1.358692">
        <ele>12.706858</ele>
        <time>2026-03-26T22:10:09.209Z</time>
      </trkpt>
      <trkpt lat="43.854338" lon="-1.359001">
        <ele>12.554610</ele>
        <time>2026-03-26T22:10:15.565Z</time>
      </trkpt>
      <trkpt lat="43.854007" lon="-1.359124">
        <ele>12.564818</ele>
        <time>2026-03-26T22:10:19.877Z</time>
      </trkpt>
      <trkpt lat="43.853637" lon="-1.359152">
        <ele>12.575857</ele>
        <time>2026-03-26T22:10:25.042Z</time>
      </trkpt>
      <trkpt lat="43.853380" lon="-1.359112">
        <ele>12.583561</ele>
        <time>2026-03-26T22:10:29.835Z</time>
      </trkpt>
      <trkpt lat="43.853012" lon="-1.359044">
        <ele>12.594620</ele>
        <time>2026-03-26T22:10:37.525Z</time>
      </trkpt>
      <trkpt lat="43.852834" lon="-1.359035">
        <ele>12.697411</ele>
        <time>2026-03-26T22:10:41.236Z</time>
      </trkpt>
      <trkpt lat="43.852602" lon="-1.359080">
        <ele>12.983638</ele>
        <time>2026-03-26T22:10:46.090Z</time>
      </trkpt>
      <trkpt lat="43.852387" lon="-1.359187">
        <ele>13.262740</ele>
        <time>2026-03-26T22:10:50.971Z</time>
      </trkpt>
      <trkpt lat="43.852311" lon="-1.359228">
        <ele>13.362380</ele>
        <time>2026-03-26T22:10:52.673Z</time>
      </trkpt>
      <trkpt lat="43.851745" lon="-1.359522">
        <ele>14.100869</ele>
        <time>2026-03-26T22:11:04.901Z</time>
      </trkpt>
      <trkpt lat="43.851645" lon="-1.359602">
        <ele>14.241928</ele>
        <time>2026-03-26T22:11:07.148Z</time>
      </trkpt>
      <trkpt lat="43.851546" lon="-1.359706">
        <ele>14.393682</ele>
        <time>2026-03-26T22:11:09.512Z</time>
      </trkpt>
      <trkpt lat="43.851556" lon="-1.359783">
        <ele>14.462619</ele>
        <time>2026-03-26T22:11:10.522Z</time>
      </trkpt>
      <trkpt lat="43.851538" lon="-1.359857">
        <ele>14.531431</ele>
        <time>2026-03-26T22:11:11.546Z</time>
      </trkpt>
      <trkpt lat="43.851503" lon="-1.359904">
        <ele>14.590961</ele>
        <time>2026-03-26T22:11:12.440Z</time>
      </trkpt>
      <trkpt lat="43.851441" lon="-1.359926">
        <ele>14.669156</ele>
        <time>2026-03-26T22:11:13.525Z</time>
      </trkpt>
      <trkpt lat="43.851350" lon="-1.359854">
        <ele>14.796001</ele>
        <time>2026-03-26T22:11:15.383Z</time>
      </trkpt>
      <trkpt lat="43.851052" lon="-1.360155">
        <ele>14.985475</ele>
        <time>2026-03-26T22:11:21.923Z</time>
      </trkpt>
      <trkpt lat="43.850896" lon="-1.360321">
        <ele>15.086535</ele>
        <time>2026-03-26T22:11:25.560Z</time>
      </trkpt>
      <trkpt lat="43.850517" lon="-1.360737">
        <ele>15.334952</ele>
        <time>2026-03-26T22:11:34.142Z</time>
      </trkpt>
      <trkpt lat="43.849832" lon="-1.360720">
        <ele>15.687054</ele>
        <time>2026-03-26T22:11:44.762Z</time>
      </trkpt>
      <trkpt lat="43.849446" lon="-1.360573">
        <ele>15.670098</ele>
        <time>2026-03-26T22:11:50.811Z</time>
      </trkpt>
      <trkpt lat="43.849388" lon="-1.360494">
        <ele>15.658173</ele>
        <time>2026-03-26T22:11:51.956Z</time>
      </trkpt>
      <trkpt lat="43.849114" lon="-1.359763">
        <ele>15.571031</ele>
        <time>2026-03-26T22:12:00.147Z</time>
      </trkpt>
      <trkpt lat="43.849076" lon="-1.359657">
        <ele>15.558510</ele>
        <time>2026-03-26T22:12:01.244Z</time>
      </trkpt>
      <trkpt lat="43.849064" lon="-1.359626">
        <ele>15.554789</ele>
        <time>2026-03-26T22:12:01.569Z</time>
      </trkpt>
      <trkpt lat="43.849001" lon="-1.359419">
        <ele>15.531023</ele>
        <time>2026-03-26T22:12:03.699Z</time>
      </trkpt>
      <trkpt lat="43.848960" lon="-1.359290">
        <ele>15.516112</ele>
        <time>2026-03-26T22:12:05.083Z</time>
      </trkpt>
      <trkpt lat="43.848825" lon="-1.358904">
        <ele>15.470735</ele>
        <time>2026-03-26T22:12:09.541Z</time>
      </trkpt>
      <trkpt lat="43.848818" lon="-1.358877">
        <ele>15.467700</ele>
        <time>2026-03-26T22:12:09.842Z</time>
      </trkpt>
      <trkpt lat="43.848762" lon="-1.358658">
        <ele>15.481418</ele>
        <time>2026-03-26T22:12:12.340Z</time>
      </trkpt>
      <trkpt lat="43.848757" lon="-1.358637">
        <ele>15.486186</ele>
        <time>2026-03-26T22:12:12.581Z</time>
      </trkpt>
      <trkpt lat="43.848674" lon="-1.358269">
        <ele>15.569304</ele>
        <time>2026-03-26T22:12:16.881Z</time>
      </trkpt>
      <trkpt lat="43.848661" lon="-1.358124">
        <ele>15.600802</ele>
        <time>2026-03-26T22:12:18.566Z</time>
      </trkpt>
      <trkpt lat="43.848592" lon="-1.358120">
        <ele>15.621446</ele>
        <time>2026-03-26T22:12:19.653Z</time>
      </trkpt>
      <trkpt lat="43.848171" lon="-1.358059">
        <ele>15.747974</ele>
        <time>2026-03-26T22:12:26.442Z</time>
      </trkpt>
      <trkpt lat="43.847973" lon="-1.358053">
        <ele>15.807173</ele>
        <time>2026-03-26T22:12:29.594Z</time>
      </trkpt>
      <trkpt lat="43.847879" lon="-1.358099">
        <ele>15.836970</ele>
        <time>2026-03-26T22:12:31.239Z</time>
      </trkpt>
      <trkpt lat="43.847789" lon="-1.358006">
        <ele>15.870521</ele>
        <time>2026-03-26T22:12:33.148Z</time>
      </trkpt>
      <trkpt lat="43.847451" lon="-1.357912">
        <ele>15.973566</ele>
        <time>2026-03-26T22:12:39.250Z</time>
      </trkpt>
      <trkpt lat="43.847175" lon="-1.357742">
        <ele>16.078207</ele>
        <time>2026-03-26T22:12:44.408Z</time>
      </trkpt>
      <trkpt lat="43.846488" lon="-1.357241">
        <ele>16.357532</ele>
        <time>2026-03-26T22:12:56.929Z</time>
      </trkpt>
      <trkpt lat="43.845038" lon="-1.356189">
        <ele>16.947880</ele>
        <time>2026-03-26T22:13:22.965Z</time>
      </trkpt>
      <trkpt lat="43.844644" lon="-1.355903">
        <ele>17.108674</ele>
        <time>2026-03-26T22:13:30.560Z</time>
      </trkpt>
      <trkpt lat="43.844029" lon="-1.355456">
        <ele>17.287002</ele>
        <time>2026-03-26T22:13:42.227Z</time>
      </trkpt>
      <trkpt lat="43.843876" lon="-1.355313">
        <ele>17.283196</ele>
        <time>2026-03-26T22:13:45.201Z</time>
      </trkpt>
      <trkpt lat="43.843695" lon="-1.355345">
        <ele>17.279431</ele>
        <time>2026-03-26T22:13:48.074Z</time>
      </trkpt>
      <trkpt lat="43.842969" lon="-1.355830">
        <ele>17.262806</ele>
        <time>2026-03-26T22:13:59.739Z</time>
      </trkpt>
      <trkpt lat="43.841863" lon="-1.356448">
        <ele>17.120954</ele>
        <time>2026-03-26T22:14:15.722Z</time>
      </trkpt>
      <trkpt lat="43.839351" lon="-1.357943">
        <ele>16.798507</ele>
        <time>2026-03-26T22:14:56.508Z</time>
      </trkpt>
      <trkpt lat="43.837315" lon="-1.359126">
        <ele>15.648709</ele>
        <time>2026-03-26T22:15:24.650Z</time>
      </trkpt>
      <trkpt lat="43.836693" lon="-1.359401">
        <ele>15.590386</ele>
        <time>2026-03-26T22:15:33.917Z</time>
      </trkpt>
      <trkpt lat="43.835973" lon="-1.359543">
        <ele>15.525417</ele>
        <time>2026-03-26T22:15:45.536Z</time>
      </trkpt>
      <trkpt lat="43.835050" lon="-1.359533">
        <ele>15.547429</ele>
        <time>2026-03-26T22:15:59.908Z</time>
      </trkpt>
      <trkpt lat="43.835003" lon="-1.359525">
        <ele>15.549331</ele>
        <time>2026-03-26T22:16:00.630Z</time>
      </trkpt>
      <trkpt lat="43.833495" lon="-1.359460">
        <ele>15.695350</ele>
        <time>2026-03-26T22:16:22.356Z</time>
      </trkpt>
      <trkpt lat="43.833122" lon="-1.359506">
        <ele>15.767089</ele>
        <time>2026-03-26T22:16:28.279Z</time>
      </trkpt>
      <trkpt lat="43.832851" lon="-1.359576">
        <ele>15.819900</ele>
        <time>2026-03-26T22:16:32.771Z</time>
      </trkpt>
      <trkpt lat="43.832513" lon="-1.359703">
        <ele>15.886988</ele>
        <time>2026-03-26T22:16:38.667Z</time>
      </trkpt>
      <trkpt lat="43.830454" lon="-1.360872">
        <ele>16.167646</ele>
        <time>2026-03-26T22:17:14.045Z</time>
      </trkpt>
      <trkpt lat="43.824691" lon="-1.364142">
        <ele>12.114075</ele>
        <time>2026-03-26T22:18:32.818Z</time>
      </trkpt>
      <trkpt lat="43.824151" lon="-1.364449">
        <ele>11.900321</ele>
        <time>2026-03-26T22:18:41.023Z</time>
      </trkpt>
      <trkpt lat="43.823940" lon="-1.364570">
        <ele>11.856087</ele>
        <time>2026-03-26T22:18:44.597Z</time>
      </trkpt>
      <trkpt lat="43.822342" lon="-1.365472">
        <ele>13.070316</ele>
        <time>2026-03-26T22:19:16.921Z</time>
      </trkpt>
      <trkpt lat="43.821481" lon="-1.365915">
        <ele>12.546201</ele>
        <time>2026-03-26T22:19:30.665Z</time>
      </trkpt>
      <trkpt lat="43.819445" lon="-1.367119">
        <ele>10.483745</ele>
        <time>2026-03-26T22:19:56.295Z</time>
      </trkpt>
      <trkpt lat="43.818926" lon="-1.367390">
        <ele>9.897114</ele>
        <time>2026-03-26T22:20:03.415Z</time>
      </trkpt>
      <trkpt lat="43.818444" lon="-1.367527">
        <ele>9.805818</ele>
        <time>2026-03-26T22:20:10.187Z</time>
      </trkpt>
      <trkpt lat="43.817013" lon="-1.367781">
        <ele>9.619766</ele>
        <time>2026-03-26T22:20:31.316Z</time>
      </trkpt>
      <trkpt lat="43.815081" lon="-1.368136">
        <ele>9.907107</ele>
        <time>2026-03-26T22:21:02.729Z</time>
      </trkpt>
      <trkpt lat="43.814866" lon="-1.368116">
        <ele>9.837714</ele>
        <time>2026-03-26T22:21:05.833Z</time>
      </trkpt>
      <trkpt lat="43.814732" lon="-1.368181">
        <ele>9.791994</ele>
        <time>2026-03-26T22:21:07.812Z</time>
      </trkpt>
      <trkpt lat="43.814306" lon="-1.368255">
        <ele>9.653734</ele>
        <time>2026-03-26T22:21:13.603Z</time>
      </trkpt>
      <trkpt lat="43.813746" lon="-1.368475">
        <ele>9.466288</ele>
        <time>2026-03-26T22:21:21.024Z</time>
      </trkpt>
      <trkpt lat="43.813096" lon="-1.368906">
        <ele>9.111612</ele>
        <time>2026-03-26T22:21:30.265Z</time>
      </trkpt>
      <trkpt lat="43.809704" lon="-1.372279">
        <ele>7.029566</ele>
        <time>2026-03-26T22:22:25.696Z</time>
      </trkpt>
      <trkpt lat="43.809583" lon="-1.372335">
        <ele>6.971576</ele>
        <time>2026-03-26T22:22:27.363Z</time>
      </trkpt>
      <trkpt lat="43.809539" lon="-1.372399">
        <ele>6.942580</ele>
        <time>2026-03-26T22:22:28.207Z</time>
      </trkpt>
      <trkpt lat="43.809533" lon="-1.372494">
        <ele>6.911298</ele>
        <time>2026-03-26T22:22:29.116Z</time>
      </trkpt>
      <trkpt lat="43.809518" lon="-1.372536">
        <ele>6.895925</ele>
        <time>2026-03-26T22:22:29.552Z</time>
      </trkpt>
      <trkpt lat="43.809371" lon="-1.372592">
        <ele>6.826625</ele>
        <time>2026-03-26T22:22:31.567Z</time>
      </trkpt>
      <trkpt lat="43.803803" lon="-1.378104">
        <ele>5.606171</ele>
        <time>2026-03-26T22:24:09.491Z</time>
      </trkpt>
      <trkpt lat="43.801334" lon="-1.380550">
        <ele>4.010827</ele>
        <time>2026-03-26T22:24:48.787Z</time>
      </trkpt>
      <trkpt lat="43.800719" lon="-1.381021">
        <ele>3.676688</ele>
        <time>2026-03-26T22:24:57.925Z</time>
      </trkpt>
      <trkpt lat="43.799069" lon="-1.381949">
        <ele>4.054400</ele>
        <time>2026-03-26T22:25:25.043Z</time>
      </trkpt>
      <trkpt lat="43.797702" lon="-1.382754">
        <ele>4.994154</ele>
        <time>2026-03-26T22:25:55.038Z</time>
      </trkpt>
      <trkpt lat="43.797599" lon="-1.382849">
        <ele>5.082788</ele>
        <time>2026-03-26T22:25:57.213Z</time>
      </trkpt>
      <trkpt lat="43.797440" lon="-1.382915">
        <ele>5.201682</ele>
        <time>2026-03-26T22:25:59.985Z</time>
      </trkpt>
      <trkpt lat="43.796909" lon="-1.383389">
        <ele>5.259247</ele>
        <time>2026-03-26T22:26:08.863Z</time>
      </trkpt>
      <trkpt lat="43.795781" lon="-1.384713">
        <ele>3.831332</ele>
        <time>2026-03-26T22:26:26.303Z</time>
      </trkpt>
      <trkpt lat="43.795727" lon="-1.384774">
        <ele>3.764036</ele>
        <time>2026-03-26T22:26:27.118Z</time>
      </trkpt>
      <trkpt lat="43.794755" lon="-1.385874">
        <ele>2.909523</ele>
        <time>2026-03-26T22:26:42.592Z</time>
      </trkpt>
      <trkpt lat="43.793502" lon="-1.387294">
        <ele>2.803227</ele>
        <time>2026-03-26T22:27:06.773Z</time>
      </trkpt>
      <trkpt lat="43.791364" lon="-1.389955">
        <ele>4.240533</ele>
        <time>2026-03-26T22:27:57.101Z</time>
      </trkpt>
      <trkpt lat="43.790842" lon="-1.390650">
        <ele>4.448865</ele>
        <time>2026-03-26T22:28:08.439Z</time>
      </trkpt>
      <trkpt lat="43.790489" lon="-1.391113">
        <ele>4.588746</ele>
        <time>2026-03-26T22:28:15.732Z</time>
      </trkpt>
      <trkpt lat="43.789608" lon="-1.392168">
        <ele>4.838493</ele>
        <time>2026-03-26T22:28:33.840Z</time>
      </trkpt>
      <trkpt lat="43.789276" lon="-1.392556">
        <ele>4.922847</ele>
        <time>2026-03-26T22:28:40.844Z</time>
      </trkpt>
      <trkpt lat="43.788213" lon="-1.393821">
        <ele>4.913298</ele>
        <time>2026-03-26T22:29:02.331Z</time>
      </trkpt>
      <trkpt lat="43.787909" lon="-1.394176">
        <ele>4.872548</ele>
        <time>2026-03-26T22:29:07.836Z</time>
      </trkpt>
      <trkpt lat="43.787348" lon="-1.394667">
        <ele>4.740835</ele>
        <time>2026-03-26T22:29:16.775Z</time>
      </trkpt>
      <trkpt lat="43.786881" lon="-1.394993">
        <ele>4.530137</ele>
        <time>2026-03-26T22:29:23.716Z</time>
      </trkpt>
      <trkpt lat="43.786433" lon="-1.395196">
        <ele>4.340225</ele>
        <time>2026-03-26T22:29:30.058Z</time>
      </trkpt>
      <trkpt lat="43.786114" lon="-1.395341">
        <ele>4.204955</ele>
        <time>2026-03-26T22:29:34.639Z</time>
      </trkpt>
      <trkpt lat="43.784797" lon="-1.395844">
        <ele>3.869525</ele>
        <time>2026-03-26T22:29:53.324Z</time>
      </trkpt>
      <trkpt lat="43.784048" lon="-1.396136">
        <ele>3.761197</ele>
        <time>2026-03-26T22:30:04.518Z</time>
      </trkpt>
      <trkpt lat="43.783634" lon="-1.396251">
        <ele>3.930856</ele>
        <time>2026-03-26T22:30:11.416Z</time>
      </trkpt>
      <trkpt lat="43.783433" lon="-1.396307">
        <ele>4.013236</ele>
        <time>2026-03-26T22:30:14.819Z</time>
      </trkpt>
      <trkpt lat="43.782703" lon="-1.396315">
        <ele>4.306562</ele>
        <time>2026-03-26T22:30:27.146Z</time>
      </trkpt>
      <trkpt lat="43.780455" lon="-1.396268">
        <ele>5.293737</ele>
        <time>2026-03-26T22:31:04.614Z</time>
      </trkpt>
      <trkpt lat="43.779963" lon="-1.396264">
        <ele>5.368543</ele>
        <time>2026-03-26T22:31:13.147Z</time>
      </trkpt>
      <trkpt lat="43.779374" lon="-1.396178">
        <ele>5.458591</ele>
        <time>2026-03-26T22:31:22.673Z</time>
      </trkpt>
      <trkpt lat="43.778816" lon="-1.395963">
        <ele>5.546652</ele>
        <time>2026-03-26T22:31:30.923Z</time>
      </trkpt>
      <trkpt lat="43.774461" lon="-1.393563">
        <ele>3.049701</ele>
        <time>2026-03-26T22:32:30.765Z</time>
      </trkpt>
      <trkpt lat="43.774196" lon="-1.394515">
        <ele>2.986015</ele>
        <time>2026-03-26T22:32:43.683Z</time>
      </trkpt>
      <trkpt lat="43.774108" lon="-1.394618">
        <ele>3.039630</ele>
        <time>2026-03-26T22:32:45.863Z</time>
      </trkpt>
      <trkpt lat="43.774126" lon="-1.394731">
        <ele>3.082877</ele>
        <time>2026-03-26T22:32:47.443Z</time>
      </trkpt>
      <trkpt lat="43.774107" lon="-1.394813">
        <ele>3.115062</ele>
        <time>2026-03-26T22:32:48.663Z</time>
      </trkpt>
      <trkpt lat="43.774027" lon="-1.394846">
        <ele>3.158266</ele>
        <time>2026-03-26T22:32:50.293Z</time>
      </trkpt>
      <trkpt lat="43.773902" lon="-1.394992">
        <ele>3.242901</ele>
        <time>2026-03-26T22:32:53.527Z</time>
      </trkpt>
      <trkpt lat="43.773596" lon="-1.394712">
        <ele>3.432730</ele>
        <time>2026-03-26T22:33:00.510Z</time>
      </trkpt>
      <trkpt lat="43.773407" lon="-1.394627">
        <ele>3.535581</ele>
        <time>2026-03-26T22:33:03.986Z</time>
      </trkpt>
      <trkpt lat="43.773056" lon="-1.394378">
        <ele>3.739700</ele>
        <time>2026-03-26T22:33:10.250Z</time>
      </trkpt>
      <trkpt lat="43.772883" lon="-1.394297">
        <ele>3.834221</ele>
        <time>2026-03-26T22:33:12.934Z</time>
      </trkpt>
      <trkpt lat="43.772740" lon="-1.394267">
        <ele>3.909079</ele>
        <time>2026-03-26T22:33:14.967Z</time>
      </trkpt>
      <trkpt lat="43.772438" lon="-1.394081">
        <ele>3.799913</ele>
        <time>2026-03-26T22:33:19.474Z</time>
      </trkpt>
      <trkpt lat="43.772317" lon="-1.393973">
        <ele>3.747146</ele>
        <time>2026-03-26T22:33:21.388Z</time>
      </trkpt>
      <trkpt lat="43.771994" lon="-1.393823">
        <ele>3.622269</ele>
        <time>2026-03-26T22:33:25.858Z</time>
      </trkpt>
      <trkpt lat="43.771731" lon="-1.393614">
        <ele>3.511120</ele>
        <time>2026-03-26T22:33:29.764Z</time>
      </trkpt>
      <trkpt lat="43.771217" lon="-1.393330">
        <ele>3.308269</ele>
        <time>2026-03-26T22:33:37.040Z</time>
      </trkpt>
      <trkpt lat="43.771028" lon="-1.393258">
        <ele>3.277069</ele>
        <time>2026-03-26T22:33:39.857Z</time>
      </trkpt>
      <trkpt lat="43.770499" lon="-1.393001">
        <ele>3.481496</ele>
        <time>2026-03-26T22:33:48.726Z</time>
      </trkpt>
      <trkpt lat="43.770403" lon="-1.392894">
        <ele>3.526433</ele>
        <time>2026-03-26T22:33:50.811Z</time>
      </trkpt>
      <trkpt lat="43.770308" lon="-1.392833">
        <ele>3.564617</ele>
        <time>2026-03-26T22:33:52.623Z</time>
      </trkpt>
      <trkpt lat="43.770214" lon="-1.392855">
        <ele>3.599381</ele>
        <time>2026-03-26T22:33:54.261Z</time>
      </trkpt>
      <trkpt lat="43.769292" lon="-1.393347">
        <ele>3.877031</ele>
        <time>2026-03-26T22:34:11.514Z</time>
      </trkpt>
      <trkpt lat="43.768856" lon="-1.393529">
        <ele>3.751139</ele>
        <time>2026-03-26T22:34:18.777Z</time>
      </trkpt>
      <trkpt lat="43.768284" lon="-1.393611">
        <ele>3.592163</ele>
        <time>2026-03-26T22:34:26.628Z</time>
      </trkpt>
      <trkpt lat="43.767914" lon="-1.393598">
        <ele>3.489842</ele>
        <time>2026-03-26T22:34:31.260Z</time>
      </trkpt>
      <trkpt lat="43.767508" lon="-1.393518">
        <ele>3.344895</ele>
        <time>2026-03-26T22:34:36.211Z</time>
      </trkpt>
      <trkpt lat="43.766695" lon="-1.393191">
        <ele>2.921162</ele>
        <time>2026-03-26T22:34:46.625Z</time>
      </trkpt>
      <trkpt lat="43.766038" lon="-1.392886">
        <ele>2.574340</ele>
        <time>2026-03-26T22:34:56.296Z</time>
      </trkpt>
      <trkpt lat="43.765862" lon="-1.392803">
        <ele>2.582192</ele>
        <time>2026-03-26T22:34:59.261Z</time>
      </trkpt>
      <trkpt lat="43.765822" lon="-1.392779">
        <ele>2.625302</ele>
        <time>2026-03-26T22:34:59.977Z</time>
      </trkpt>
      <trkpt lat="43.765676" lon="-1.392704">
        <ele>2.779297</ele>
        <time>2026-03-26T22:35:02.615Z</time>
      </trkpt>
      <trkpt lat="43.765665" lon="-1.392698">
        <ele>2.790989</ele>
        <time>2026-03-26T22:35:02.808Z</time>
      </trkpt>
      <trkpt lat="43.765558" lon="-1.392632">
        <ele>2.906825</ele>
        <time>2026-03-26T22:35:04.877Z</time>
      </trkpt>
      <trkpt lat="43.763994" lon="-1.391822">
        <ele>4.581840</ele>
        <time>2026-03-26T22:35:38.100Z</time>
      </trkpt>
      <trkpt lat="43.763373" lon="-1.391534">
        <ele>5.287640</ele>
        <time>2026-03-26T22:35:51.782Z</time>
      </trkpt>
      <trkpt lat="43.762867" lon="-1.391259">
        <ele>5.873464</ele>
        <time>2026-03-26T22:36:02.249Z</time>
      </trkpt>
      <trkpt lat="43.762841" lon="-1.391205">
        <ele>5.923978</ele>
        <time>2026-03-26T22:36:03.085Z</time>
      </trkpt>
      <trkpt lat="43.762777" lon="-1.391141">
        <ele>6.009058</ele>
        <time>2026-03-26T22:36:04.511Z</time>
      </trkpt>
      <trkpt lat="43.762694" lon="-1.391073">
        <ele>6.112994</ele>
        <time>2026-03-26T22:36:06.206Z</time>
      </trkpt>
      <trkpt lat="43.762613" lon="-1.391124">
        <ele>6.208890</ele>
        <time>2026-03-26T22:36:07.759Z</time>
      </trkpt>
      <trkpt lat="43.760963" lon="-1.392503">
        <ele>6.067552</ele>
        <time>2026-03-26T22:36:35.182Z</time>
      </trkpt>
      <trkpt lat="43.758092" lon="-1.394845">
        <ele>4.958603</ele>
        <time>2026-03-26T22:37:20.613Z</time>
      </trkpt>
      <trkpt lat="43.756826" lon="-1.395880">
        <ele>4.494846</ele>
        <time>2026-03-26T22:37:40.196Z</time>
      </trkpt>
      <trkpt lat="43.754645" lon="-1.397634">
        <ele>4.424129</ele>
        <time>2026-03-26T22:38:18.236Z</time>
      </trkpt>
      <trkpt lat="43.750771" lon="-1.400749">
        <ele>4.999172</ele>
        <time>2026-03-26T22:39:26.518Z</time>
      </trkpt>
      <trkpt lat="43.749893" lon="-1.401486">
        <ele>5.270408</ele>
        <time>2026-03-26T22:39:43.137Z</time>
      </trkpt>
      <trkpt lat="43.749141" lon="-1.402063">
        <ele>5.604849</ele>
        <time>2026-03-26T22:39:57.981Z</time>
      </trkpt>
      <trkpt lat="43.748420" lon="-1.402652">
        <ele>5.718241</ele>
        <time>2026-03-26T22:40:11.469Z</time>
      </trkpt>
      <trkpt lat="43.744544" lon="-1.405788">
        <ele>3.717432</ele>
        <time>2026-03-26T22:41:10.346Z</time>
      </trkpt>
      <trkpt lat="43.741014" lon="-1.408686">
        <ele>3.397216</ele>
        <time>2026-03-26T22:42:10.294Z</time>
      </trkpt>
      <trkpt lat="43.740600" lon="-1.408997">
        <ele>3.526621</ele>
        <time>2026-03-26T22:42:17.744Z</time>
      </trkpt>
      <trkpt lat="43.737774" lon="-1.411304">
        <ele>4.887241</ele>
        <time>2026-03-26T22:43:12.651Z</time>
      </trkpt>
      <trkpt lat="43.737234" lon="-1.411690">
        <ele>5.000181</ele>
        <time>2026-03-26T22:43:21.789Z</time>
      </trkpt>
      <trkpt lat="43.736571" lon="-1.412238">
        <ele>5.143683</ele>
        <time>2026-03-26T22:43:32.895Z</time>
      </trkpt>
      <trkpt lat="43.736402" lon="-1.412291">
        <ele>5.175884</ele>
        <time>2026-03-26T22:43:35.634Z</time>
      </trkpt>
      <trkpt lat="43.736170" lon="-1.412260">
        <ele>5.219197</ele>
        <time>2026-03-26T22:43:39.556Z</time>
      </trkpt>
      <trkpt lat="43.735976" lon="-1.412168">
        <ele>5.395187</ele>
        <time>2026-03-26T22:43:43.144Z</time>
      </trkpt>
      <trkpt lat="43.735714" lon="-1.411995">
        <ele>5.655175</ele>
        <time>2026-03-26T22:43:48.422Z</time>
      </trkpt>
      <trkpt lat="43.735368" lon="-1.411747">
        <ele>6.004147</ele>
        <time>2026-03-26T22:43:55.772Z</time>
      </trkpt>
      <trkpt lat="43.734906" lon="-1.411508">
        <ele>6.445879</ele>
        <time>2026-03-26T22:44:05.341Z</time>
      </trkpt>
      <trkpt lat="43.734431" lon="-1.411415">
        <ele>6.855001</ele>
        <time>2026-03-26T22:44:14.832Z</time>
      </trkpt>
      <trkpt lat="43.733706" lon="-1.411769">
        <ele>7.218142</ele>
        <time>2026-03-26T22:44:28.292Z</time>
      </trkpt>
      <trkpt lat="43.731666" lon="-1.412754">
        <ele>7.783221</ele>
        <time>2026-03-26T22:45:01.931Z</time>
      </trkpt>
      <trkpt lat="43.731047" lon="-1.413034">
        <ele>7.844340</ele>
        <time>2026-03-26T22:45:11.081Z</time>
      </trkpt>
      <trkpt lat="43.730900" lon="-1.413053">
        <ele>7.880443</ele>
        <time>2026-03-26T22:45:13.208Z</time>
      </trkpt>
      <trkpt lat="43.730731" lon="-1.413023">
        <ele>7.922108</ele>
        <time>2026-03-26T22:45:15.753Z</time>
      </trkpt>
      <trkpt lat="43.730498" lon="-1.412915">
        <ele>7.982195</ele>
        <time>2026-03-26T22:45:19.554Z</time>
      </trkpt>
      <trkpt lat="43.730195" lon="-1.412620">
        <ele>8.072788</ele>
        <time>2026-03-26T22:45:25.274Z</time>
      </trkpt>
      <trkpt lat="43.729644" lon="-1.412163">
        <ele>8.229872</ele>
        <time>2026-03-26T22:45:35.547Z</time>
      </trkpt>
      <trkpt lat="43.729185" lon="-1.411903">
        <ele>8.402144</ele>
        <time>2026-03-26T22:45:44.368Z</time>
      </trkpt>
      <trkpt lat="43.728599" lon="-1.411640">
        <ele>8.655530</ele>
        <time>2026-03-26T22:45:55.282Z</time>
      </trkpt>
      <trkpt lat="43.727715" lon="-1.411569">
        <ele>9.013745</ele>
        <time>2026-03-26T22:46:09.258Z</time>
      </trkpt>
      <trkpt lat="43.727479" lon="-1.411583">
        <ele>8.947140</ele>
        <time>2026-03-26T22:46:12.637Z</time>
      </trkpt>
      <trkpt lat="43.726746" lon="-1.411766">
        <ele>8.737125</ele>
        <time>2026-03-26T22:46:23.019Z</time>
      </trkpt>
      <trkpt lat="43.726637" lon="-1.411488">
        <ele>8.672679</ele>
        <time>2026-03-26T22:46:26.083Z</time>
      </trkpt>
      <trkpt lat="43.726473" lon="-1.410947">
        <ele>8.553139</ele>
        <time>2026-03-26T22:46:31.681Z</time>
      </trkpt>
      <trkpt lat="43.726390" lon="-1.410313">
        <ele>8.577307</ele>
        <time>2026-03-26T22:46:37.842Z</time>
      </trkpt>
      <trkpt lat="43.726319" lon="-1.409235">
        <ele>8.750044</ele>
        <time>2026-03-26T22:46:49.315Z</time>
      </trkpt>
      <trkpt lat="43.726254" lon="-1.408998">
        <ele>8.790496</ele>
        <time>2026-03-26T22:46:52.269Z</time>
      </trkpt>
      <trkpt lat="43.726160" lon="-1.408849">
        <ele>8.822058</ele>
        <time>2026-03-26T22:46:54.687Z</time>
      </trkpt>
      <trkpt lat="43.726107" lon="-1.408790">
        <ele>8.837079</ele>
        <time>2026-03-26T22:46:55.870Z</time>
      </trkpt>
      <trkpt lat="43.725466" lon="-1.408276">
        <ele>9.267906</ele>
        <time>2026-03-26T22:47:10.106Z</time>
      </trkpt>
      <trkpt lat="43.724911" lon="-1.407667">
        <ele>9.866803</ele>
        <time>2026-03-26T22:47:24.690Z</time>
      </trkpt>
      <trkpt lat="43.724249" lon="-1.406858">
        <ele>10.515136</ele>
        <time>2026-03-26T22:47:39.210Z</time>
      </trkpt>
      <trkpt lat="43.723971" lon="-1.406563">
        <ele>10.655070</ele>
        <time>2026-03-26T22:47:43.903Z</time>
      </trkpt>
      <trkpt lat="43.723416" lon="-1.406219">
        <ele>10.897977</ele>
        <time>2026-03-26T22:47:52.224Z</time>
      </trkpt>
      <trkpt lat="43.723150" lon="-1.406032">
        <ele>11.017151</ele>
        <time>2026-03-26T22:47:56.982Z</time>
      </trkpt>
      <trkpt lat="43.722791" lon="-1.405685">
        <ele>11.416676</ele>
        <time>2026-03-26T22:48:05.437Z</time>
      </trkpt>
      <trkpt lat="43.721865" lon="-1.404715">
        <ele>14.114854</ele>
        <time>2026-03-26T22:48:36.223Z</time>
      </trkpt>
      <trkpt lat="43.721683" lon="-1.404451">
        <ele>14.727423</ele>
        <time>2026-03-26T22:48:43.242Z</time>
      </trkpt>
      <trkpt lat="43.721331" lon="-1.403829">
        <ele>15.559791</ele>
        <time>2026-03-26T22:48:56.315Z</time>
      </trkpt>
      <trkpt lat="43.721241" lon="-1.403561">
        <ele>15.720103</ele>
        <time>2026-03-26T22:49:00.466Z</time>
      </trkpt>
      <trkpt lat="43.721205" lon="-1.403295">
        <ele>15.866909</ele>
        <time>2026-03-26T22:49:03.952Z</time>
      </trkpt>
      <trkpt lat="43.721095" lon="-1.401950">
        <ele>16.601196</ele>
        <time>2026-03-26T22:49:18.574Z</time>
      </trkpt>
      <trkpt lat="43.720843" lon="-1.400443">
        <ele>17.237903</ele>
        <time>2026-03-26T22:49:36.227Z</time>
      </trkpt>
      <trkpt lat="43.720652" lon="-1.399673">
        <ele>17.562874</ele>
        <time>2026-03-26T22:49:47.262Z</time>
      </trkpt>
      <trkpt lat="43.720479" lon="-1.399084">
        <ele>17.676712</ele>
        <time>2026-03-26T22:49:56.126Z</time>
      </trkpt>
      <trkpt lat="43.720387" lon="-1.398847">
        <ele>17.683331</ele>
        <time>2026-03-26T22:49:59.934Z</time>
      </trkpt>
      <trkpt lat="43.720280" lon="-1.398650">
        <ele>17.689395</ele>
        <time>2026-03-26T22:50:03.375Z</time>
      </trkpt>
      <trkpt lat="43.719480" lon="-1.397844">
        <ele>17.723087</ele>
        <time>2026-03-26T22:50:18.205Z</time>
      </trkpt>
      <trkpt lat="43.719270" lon="-1.397558">
        <ele>17.484212</ele>
        <time>2026-03-26T22:50:21.501Z</time>
      </trkpt>
      <trkpt lat="43.718957" lon="-1.396925">
        <ele>16.426788</ele>
        <time>2026-03-26T22:50:27.357Z</time>
      </trkpt>
      <trkpt lat="43.718908" lon="-1.396823">
        <ele>16.257928</ele>
        <time>2026-03-26T22:50:28.280Z</time>
      </trkpt>
      <trkpt lat="43.718569" lon="-1.396272">
        <ele>15.260284</ele>
        <time>2026-03-26T22:50:33.739Z</time>
      </trkpt>
      <trkpt lat="43.718417" lon="-1.396111">
        <ele>14.895116</ele>
        <time>2026-03-26T22:50:35.805Z</time>
      </trkpt>
      <trkpt lat="43.718007" lon="-1.395846">
        <ele>14.251704</ele>
        <time>2026-03-26T22:50:41.106Z</time>
      </trkpt>
      <trkpt lat="43.717649" lon="-1.395692">
        <ele>14.128101</ele>
        <time>2026-03-26T22:50:46.113Z</time>
      </trkpt>
      <trkpt lat="43.716991" lon="-1.395587">
        <ele>13.909725</ele>
        <time>2026-03-26T22:50:56.406Z</time>
      </trkpt>
      <trkpt lat="43.716716" lon="-1.395590">
        <ele>13.819057</ele>
        <time>2026-03-26T22:51:00.726Z</time>
      </trkpt>
      <trkpt lat="43.715310" lon="-1.395614">
        <ele>13.704249</ele>
        <time>2026-03-26T22:51:20.410Z</time>
      </trkpt>
      <trkpt lat="43.714991" lon="-1.395490">
        <ele>13.704127</ele>
        <time>2026-03-26T22:51:25.419Z</time>
      </trkpt>
      <trkpt lat="43.714861" lon="-1.395371">
        <ele>13.704070</ele>
        <time>2026-03-26T22:51:27.920Z</time>
      </trkpt>
      <trkpt lat="43.714731" lon="-1.395178">
        <ele>13.704000</ele>
        <time>2026-03-26T22:51:31.113Z</time>
      </trkpt>
      <trkpt lat="43.714605" lon="-1.394900">
        <ele>13.708145</ele>
        <time>2026-03-26T22:51:35.239Z</time>
      </trkpt>
      <trkpt lat="43.714188" lon="-1.393611">
        <ele>13.732384</ele>
        <time>2026-03-26T22:51:51.244Z</time>
      </trkpt>
      <trkpt lat="43.713933" lon="-1.392890">
        <ele>13.746162</ele>
        <time>2026-03-26T22:51:59.152Z</time>
      </trkpt>
      <trkpt lat="43.713846" lon="-1.392708">
        <ele>13.749242</ele>
        <time>2026-03-26T22:52:01.233Z</time>
      </trkpt>
      <trkpt lat="43.713594" lon="-1.392363">
        <ele>13.755919</ele>
        <time>2026-03-26T22:52:05.776Z</time>
      </trkpt>
      <trkpt lat="43.713479" lon="-1.392137">
        <ele>13.759682</ele>
        <time>2026-03-26T22:52:08.316Z</time>
      </trkpt>
      <trkpt lat="43.713142" lon="-1.390877">
        <ele>13.777972</ele>
        <time>2026-03-26T22:52:23.082Z</time>
      </trkpt>
      <trkpt lat="43.713025" lon="-1.390566">
        <ele>13.915606</ele>
        <time>2026-03-26T22:52:27.711Z</time>
      </trkpt>
      <trkpt lat="43.712898" lon="-1.390346">
        <ele>14.153217</ele>
        <time>2026-03-26T22:52:31.495Z</time>
      </trkpt>
      <trkpt lat="43.711756" lon="-1.388880">
        <ele>16.018820</ele>
        <time>2026-03-26T22:53:02.652Z</time>
      </trkpt>
      <trkpt lat="43.711260" lon="-1.388196">
        <ele>17.253160</ele>
        <time>2026-03-26T22:53:17.869Z</time>
      </trkpt>
      <trkpt lat="43.710367" lon="-1.386585">
        <ele>20.203448</ele>
        <time>2026-03-26T22:53:50.710Z</time>
      </trkpt>
      <trkpt lat="43.710214" lon="-1.386137">
        <ele>21.125859</ele>
        <time>2026-03-26T22:53:59.051Z</time>
      </trkpt>
      <trkpt lat="43.709980" lon="-1.385159">
        <ele>23.043687</ele>
        <time>2026-03-26T22:54:18.398Z</time>
      </trkpt>
      <trkpt lat="43.709514" lon="-1.383345">
        <ele>27.013935</ele>
        <time>2026-03-26T22:54:59.110Z</time>
      </trkpt>
      <trkpt lat="43.709347" lon="-1.382794">
        <ele>28.272147</ele>
        <time>2026-03-26T22:55:10.256Z</time>
      </trkpt>
      <trkpt lat="43.708382" lon="-1.380994">
        <ele>30.029620</ele>
        <time>2026-03-26T22:55:41.372Z</time>
      </trkpt>
      <trkpt lat="43.707980" lon="-1.380261">
        <ele>29.827980</ele>
        <time>2026-03-26T22:55:50.961Z</time>
      </trkpt>
      <trkpt lat="43.707120" lon="-1.378693">
        <ele>27.013290</ele>
        <time>2026-03-26T22:56:06.606Z</time>
      </trkpt>
      <trkpt lat="43.705528" lon="-1.376352">
        <ele>18.388288</ele>
        <time>2026-03-26T22:56:28.694Z</time>
      </trkpt>
      <trkpt lat="43.705417" lon="-1.376245">
        <ele>18.205478</ele>
        <time>2026-03-26T22:56:30.158Z</time>
      </trkpt>
      <trkpt lat="43.705174" lon="-1.376047">
        <ele>17.824402</ele>
        <time>2026-03-26T22:56:33.428Z</time>
      </trkpt>
      <trkpt lat="43.704931" lon="-1.375892">
        <ele>17.462829</ele>
        <time>2026-03-26T22:56:36.907Z</time>
      </trkpt>
      <trkpt lat="43.704640" lon="-1.375707">
        <ele>17.030085</ele>
        <time>2026-03-26T22:56:42.015Z</time>
      </trkpt>
      <trkpt lat="43.704271" lon="-1.375568">
        <ele>16.515402</ele>
        <time>2026-03-26T22:56:49.481Z</time>
      </trkpt>
      <trkpt lat="43.702121" lon="-1.374862">
        <ele>18.583429</ele>
        <time>2026-03-26T22:57:31.333Z</time>
      </trkpt>
      <trkpt lat="43.701951" lon="-1.374807">
        <ele>18.708074</ele>
        <time>2026-03-26T22:57:34.542Z</time>
      </trkpt>
      <trkpt lat="43.701695" lon="-1.374724">
        <ele>18.895795</ele>
        <time>2026-03-26T22:57:39.369Z</time>
      </trkpt>
      <trkpt lat="43.700975" lon="-1.374491">
        <ele>19.423708</ele>
        <time>2026-03-26T22:57:52.597Z</time>
      </trkpt>
      <trkpt lat="43.700348" lon="-1.374231">
        <ele>19.374743</ele>
        <time>2026-03-26T22:58:02.495Z</time>
      </trkpt>
      <trkpt lat="43.700265" lon="-1.374197">
        <ele>19.336088</ele>
        <time>2026-03-26T22:58:03.659Z</time>
      </trkpt>
      <trkpt lat="43.700397" lon="-1.373690">
        <ele>19.162121</ele>
        <time>2026-03-26T22:58:08.722Z</time>
      </trkpt>
      <trkpt lat="43.700428" lon="-1.372568">
        <ele>18.799635</ele>
        <time>2026-03-26T22:58:18.882Z</time>
      </trkpt>
      <trkpt lat="43.700432" lon="-1.372461">
        <ele>18.764051</ele>
        <time>2026-03-26T22:58:19.832Z</time>
      </trkpt>
      <trkpt lat="43.700553" lon="-1.371904">
        <ele>18.540279</ele>
        <time>2026-03-26T22:58:25.116Z</time>
      </trkpt>
      <trkpt lat="43.700742" lon="-1.370339">
        <ele>17.929800</ele>
        <time>2026-03-26T22:58:40.361Z</time>
      </trkpt>
      <trkpt lat="43.700739" lon="-1.369960">
        <ele>17.825410</ele>
        <time>2026-03-26T22:58:44.044Z</time>
      </trkpt>
      <trkpt lat="43.700585" lon="-1.368875">
        <ele>18.007017</ele>
        <time>2026-03-26T22:58:55.993Z</time>
      </trkpt>
      <trkpt lat="43.700556" lon="-1.368675">
        <ele>18.040520</ele>
        <time>2026-03-26T22:58:58.404Z</time>
      </trkpt>
      <trkpt lat="43.700550" lon="-1.368388">
        <ele>18.087679</ele>
        <time>2026-03-26T22:59:01.900Z</time>
      </trkpt>
      <trkpt lat="43.700570" lon="-1.368214">
        <ele>18.116616</ele>
        <time>2026-03-26T22:59:04.098Z</time>
      </trkpt>
      <trkpt lat="43.700587" lon="-1.368063">
        <ele>18.141716</ele>
        <time>2026-03-26T22:59:06.030Z</time>
      </trkpt>
      <trkpt lat="43.700662" lon="-1.367423">
        <ele>18.225867</ele>
        <time>2026-03-26T22:59:14.445Z</time>
      </trkpt>
      <trkpt lat="43.700942" lon="-1.365077">
        <ele>18.218155</ele>
        <time>2026-03-26T22:59:41.092Z</time>
      </trkpt>
      <trkpt lat="43.701061" lon="-1.363622">
        <ele>16.273750</ele>
        <time>2026-03-26T22:59:52.940Z</time>
      </trkpt>
      <trkpt lat="43.701228" lon="-1.362732">
        <ele>15.052772</ele>
        <time>2026-03-26T22:59:59.851Z</time>
      </trkpt>
      <trkpt lat="43.701256" lon="-1.362354">
        <ele>14.676441</ele>
        <time>2026-03-26T23:00:02.757Z</time>
      </trkpt>
      <trkpt lat="43.701221" lon="-1.361998">
        <ele>14.340057</ele>
        <time>2026-03-26T23:00:05.577Z</time>
      </trkpt>
      <trkpt lat="43.701165" lon="-1.361667">
        <ele>14.021775</ele>
        <time>2026-03-26T23:00:08.320Z</time>
      </trkpt>
      <trkpt lat="43.701158" lon="-1.361625">
        <ele>13.981420</ele>
        <time>2026-03-26T23:00:08.664Z</time>
      </trkpt>
      <trkpt lat="43.701179" lon="-1.361439">
        <ele>13.805160</ele>
        <time>2026-03-26T23:00:10.216Z</time>
      </trkpt>
      <trkpt lat="43.701541" lon="-1.360674">
        <ele>12.949117</ele>
        <time>2026-03-26T23:00:18.232Z</time>
      </trkpt>
      <trkpt lat="43.701634" lon="-1.360343">
        <ele>12.703981</ele>
        <time>2026-03-26T23:00:21.919Z</time>
      </trkpt>
      <trkpt lat="43.701625" lon="-1.360056">
        <ele>13.069542</ele>
        <time>2026-03-26T23:00:25.498Z</time>
      </trkpt>
      <trkpt lat="43.701572" lon="-1.359831">
        <ele>13.370677</ele>
        <time>2026-03-26T23:00:28.767Z</time>
      </trkpt>
      <trkpt lat="43.701370" lon="-1.358979">
        <ele>14.511694</ele>
        <time>2026-03-26T23:00:42.823Z</time>
      </trkpt>
      <trkpt lat="43.700919" lon="-1.358142">
        <ele>15.837709</ele>
        <time>2026-03-26T23:01:02.709Z</time>
      </trkpt>
      <trkpt lat="43.700736" lon="-1.357613">
        <ele>16.496579</ele>
        <time>2026-03-26T23:01:14.136Z</time>
      </trkpt>
      <trkpt lat="43.700427" lon="-1.356715">
        <ele>17.613939</ele>
        <time>2026-03-26T23:01:30.857Z</time>
      </trkpt>
      <trkpt lat="43.699795" lon="-1.354845">
        <ele>18.272458</ele>
        <time>2026-03-26T23:01:52.808Z</time>
      </trkpt>
      <trkpt lat="43.699603" lon="-1.354190">
        <ele>18.066254</ele>
        <time>2026-03-26T23:01:59.284Z</time>
      </trkpt>
      <trkpt lat="43.699312" lon="-1.351714">
        <ele>16.859216</ele>
        <time>2026-03-26T23:02:22.387Z</time>
      </trkpt>
      <trkpt lat="43.699154" lon="-1.350794">
        <ele>16.480410</ele>
        <time>2026-03-26T23:02:30.845Z</time>
      </trkpt>
      <trkpt lat="43.699109" lon="-1.350589">
        <ele>16.444078</ele>
        <time>2026-03-26T23:02:32.811Z</time>
      </trkpt>
      <trkpt lat="43.698934" lon="-1.349820">
        <ele>16.307361</ele>
        <time>2026-03-26T23:02:40.453Z</time>
      </trkpt>
      <trkpt lat="43.699002" lon="-1.349418">
        <ele>16.237348</ele>
        <time>2026-03-26T23:02:44.639Z</time>
      </trkpt>
      <trkpt lat="43.699367" lon="-1.348004">
        <ele>16.632152</ele>
        <time>2026-03-26T23:03:03.123Z</time>
      </trkpt>
      <trkpt lat="43.699674" lon="-1.346296">
        <ele>17.745851</ele>
        <time>2026-03-26T23:03:27.898Z</time>
      </trkpt>
      <trkpt lat="43.699827" lon="-1.345822">
        <ele>18.030990</ele>
        <time>2026-03-26T23:03:34.794Z</time>
      </trkpt>
      <trkpt lat="43.700145" lon="-1.345015">
        <ele>18.535841</ele>
        <time>2026-03-26T23:03:46.381Z</time>
      </trkpt>
      <trkpt lat="43.700207" lon="-1.344760">
        <ele>18.683620</ele>
        <time>2026-03-26T23:03:49.702Z</time>
      </trkpt>
      <trkpt lat="43.700218" lon="-1.344489">
        <ele>18.832713</ele>
        <time>2026-03-26T23:03:53.064Z</time>
      </trkpt>
      <trkpt lat="43.700199" lon="-1.343963">
        <ele>19.115599</ele>
        <time>2026-03-26T23:03:59.671Z</time>
      </trkpt>
      <trkpt lat="43.700137" lon="-1.343440">
        <ele>19.371033</ele>
        <time>2026-03-26T23:04:06.561Z</time>
      </trkpt>
      <trkpt lat="43.699877" lon="-1.341866">
        <ele>20.149198</ele>
        <time>2026-03-26T23:04:27.403Z</time>
      </trkpt>
      <trkpt lat="43.699751" lon="-1.341338">
        <ele>20.332649</ele>
        <time>2026-03-26T23:04:33.985Z</time>
      </trkpt>
      <trkpt lat="43.699646" lon="-1.341040">
        <ele>20.401382</ele>
        <time>2026-03-26T23:04:37.804Z</time>
      </trkpt>
      <trkpt lat="43.699418" lon="-1.340592">
        <ele>20.514974</ele>
        <time>2026-03-26T23:04:43.951Z</time>
      </trkpt>
      <trkpt lat="43.698582" lon="-1.339069">
        <ele>20.933464</ele>
        <time>2026-03-26T23:05:06.053Z</time>
      </trkpt>
      <trkpt lat="43.698011" lon="-1.337953">
        <ele>21.266148</ele>
        <time>2026-03-26T23:05:22.701Z</time>
      </trkpt>
      <trkpt lat="43.696850" lon="-1.336633">
        <ele>21.200063</ele>
        <time>2026-03-26T23:05:45.054Z</time>
      </trkpt>
      <trkpt lat="43.696802" lon="-1.336578">
        <ele>21.189630</ele>
        <time>2026-03-26T23:05:45.887Z</time>
      </trkpt>
      <trkpt lat="43.696340" lon="-1.335922">
        <ele>21.107220</ele>
        <time>2026-03-26T23:05:54.412Z</time>
      </trkpt>
      <trkpt lat="43.696132" lon="-1.335544">
        <ele>21.210560</ele>
        <time>2026-03-26T23:05:58.961Z</time>
      </trkpt>
      <trkpt lat="43.695851" lon="-1.334625">
        <ele>21.427631</ele>
        <time>2026-03-26T23:06:10.051Z</time>
      </trkpt>
      <trkpt lat="43.695178" lon="-1.333169">
        <ele>22.412744</ele>
        <time>2026-03-26T23:06:33.868Z</time>
      </trkpt>
      <trkpt lat="43.695087" lon="-1.333052">
        <ele>22.581444</ele>
        <time>2026-03-26T23:06:36.441Z</time>
      </trkpt>
      <trkpt lat="43.694829" lon="-1.332835">
        <ele>22.991444</ele>
        <time>2026-03-26T23:06:42.650Z</time>
      </trkpt>
      <trkpt lat="43.694645" lon="-1.332723">
        <ele>23.264402</ele>
        <time>2026-03-26T23:06:46.907Z</time>
      </trkpt>
      <trkpt lat="43.694328" lon="-1.332503">
        <ele>23.745970</ele>
        <time>2026-03-26T23:06:54.505Z</time>
      </trkpt>
      <trkpt lat="43.694000" lon="-1.332335">
        <ele>24.072335</ele>
        <time>2026-03-26T23:07:01.566Z</time>
      </trkpt>
      <trkpt lat="43.693524" lon="-1.332093">
        <ele>24.072335</ele>
        <time>2026-03-26T23:07:11.962Z</time>
      </trkpt>
      <trkpt lat="43.693205" lon="-1.331877">
        <ele>24.072335</ele>
        <time>2026-03-26T23:07:18.532Z</time>
      </trkpt>
      <trkpt lat="43.692781" lon="-1.331501">
        <ele>24.072335</ele>
        <time>2026-03-26T23:07:26.589Z</time>
      </trkpt>
      <trkpt lat="43.692727" lon="-1.331387">
        <ele>24.072335</ele>
        <time>2026-03-26T23:07:28.003Z</time>
      </trkpt>
      <trkpt lat="43.692690" lon="-1.331196">
        <ele>24.072335</ele>
        <time>2026-03-26T23:07:29.971Z</time>
      </trkpt>
      <trkpt lat="43.692675" lon="-1.330814">
        <ele>24.072335</ele>
        <time>2026-03-26T23:07:33.647Z</time>
      </trkpt>
      <trkpt lat="43.692638" lon="-1.330610">
        <ele>24.072335</ele>
        <time>2026-03-26T23:07:35.644Z</time>
      </trkpt>
      <trkpt lat="43.692459" lon="-1.330699">
        <ele>24.072335</ele>
        <time>2026-03-26T23:07:38.160Z</time>
      </trkpt>
    </trkseg>
  </trk>
</gpx>